createdAt,value
2018-03-20T00:00:23.746Z,-0.09
2018-03-20T00:02:52.872Z,-0.07
2018-03-20T00:05:21.909Z,-0.06
2018-03-20T00:07:50.941Z,-0.06
2018-03-20T00:10:20.328Z,-0.04
2018-03-20T00:12:49.364Z,-0.05
2018-03-20T00:15:18.403Z,-0.07
2018-03-20T00:17:49.173Z,-0.12
2018-03-20T00:20:19.245Z,-0.13
2018-03-20T00:22:50.609Z,-0.11
2018-03-20T00:25:20.132Z,-0.15
2018-03-20T00:27:49.173Z,-0.19
2018-03-20T00:30:18.954Z,-0.24
2018-03-20T00:32:48.389Z,-0.22
2018-03-20T00:35:17.797Z,-0.26
2018-03-20T00:37:46.821Z,-0.37
2018-03-20T00:40:16.349Z,-0.48
2018-03-20T00:42:46.620Z,-0.57
2018-03-20T00:45:15.855Z,-0.63
2018-03-20T00:47:46.075Z,-0.69
2018-03-20T00:50:15.160Z,-0.73
2018-03-20T00:52:45.408Z,-0.77
2018-03-20T00:55:14.503Z,-0.79
2018-03-20T00:57:43.528Z,-0.80
2018-03-20T01:00:14.077Z,-0.81
2018-03-20T01:02:43.336Z,-0.83
2018-03-20T01:05:13.549Z,-0.83
2018-03-20T01:07:42.933Z,-0.81
2018-03-20T01:10:12.022Z,-0.78
2018-03-20T01:12:41.460Z,-0.77
2018-03-20T01:15:10.823Z,-0.74
2018-03-20T01:17:39.860Z,-0.72
2018-03-20T01:20:08.885Z,-0.68
2018-03-20T01:22:38.592Z,-0.62
2018-03-20T01:25:07.624Z,-0.58
2018-03-20T01:27:36.789Z,-0.56
2018-03-20T01:30:06.572Z,-0.54
2018-03-20T01:32:35.972Z,-0.57
2018-03-20T01:35:05.005Z,-0.61
2018-03-20T01:37:34.817Z,-0.63
2018-03-20T01:40:05.543Z,-0.63
2018-03-20T01:42:34.587Z,-0.68
2018-03-20T01:45:04.101Z,-0.80
2018-03-20T01:47:33.550Z,-0.90
2018-03-20T01:50:02.592Z,-0.97
2018-03-20T01:52:31.803Z,-1.04
2018-03-20T01:55:01.524Z,-1.08
2018-03-20T01:57:30.977Z,-1.07
2018-03-20T02:00:00.009Z,-1.03
2018-03-20T02:02:29.291Z,-0.96
2018-03-20T02:04:59.377Z,-0.86
2018-03-20T02:07:28.416Z,-0.77
2018-03-20T02:09:58.648Z,-0.68
2018-03-20T02:12:27.679Z,-0.73
2018-03-20T02:14:56.708Z,-0.83
2018-03-20T02:17:25.737Z,-0.92
2018-03-20T02:19:54.774Z,-0.93
2018-03-20T02:22:24.267Z,-0.97
2018-03-20T02:24:53.853Z,-0.95
2018-03-20T02:27:23.688Z,-0.86
2018-03-20T02:29:53.967Z,-0.81
2018-03-20T02:32:23.020Z,-0.74
2018-03-20T02:34:52.068Z,-0.68
2018-03-20T02:37:21.437Z,-0.70
2018-03-20T02:39:50.932Z,-0.76
2018-03-20T02:42:20.000Z,-0.85
2018-03-20T02:44:49.033Z,-0.92
2018-03-20T02:47:18.065Z,-0.95
2018-03-20T02:49:47.383Z,-0.94
2018-03-20T02:52:20.645Z,-0.93
2018-03-20T02:54:51.945Z,-0.90
2018-03-20T02:57:21.298Z,-0.93
2018-03-20T02:59:51.503Z,-0.93
2018-03-20T03:02:21.668Z,-0.94
2018-03-20T03:04:52.885Z,-0.92
2018-03-20T03:07:24.311Z,-0.90
2018-03-20T03:09:53.864Z,-0.86
2018-03-20T03:12:23.471Z,-0.78
2018-03-20T03:14:53.615Z,-0.76
2018-03-20T03:17:22.744Z,-0.81
2018-03-20T03:19:53.047Z,-0.84
2018-03-20T03:22:22.093Z,-0.86
2018-03-20T03:24:52.331Z,-0.83
2018-03-20T03:27:21.935Z,-0.76
2018-03-20T03:29:51.776Z,-0.70
2018-03-20T03:32:21.466Z,-0.64
2018-03-20T03:34:50.854Z,-0.64
2018-03-20T03:37:20.329Z,-0.61
2018-03-20T03:39:49.357Z,-0.59
2018-03-20T03:42:19.295Z,-0.57
2018-03-20T03:44:48.619Z,-0.57
2018-03-20T03:47:17.646Z,-0.59
2018-03-20T03:49:46.970Z,-0.62
2018-03-20T03:52:16.265Z,-0.64
2018-03-20T03:54:45.865Z,-0.63
2018-03-20T03:57:15.253Z,-0.62
2018-03-20T03:59:44.302Z,-0.60
2018-03-20T04:02:13.330Z,-0.59
2018-03-20T04:04:42.861Z,-0.60
2018-03-20T04:07:11.887Z,-0.60
2018-03-20T04:09:41.156Z,-0.61
2018-03-20T04:12:10.638Z,-0.59
2018-03-20T04:14:40.007Z,-0.58
2018-03-20T04:17:09.450Z,-0.59
2018-03-20T04:19:39.134Z,-0.58
2018-03-20T04:22:08.852Z,-0.56
2018-03-20T04:24:37.976Z,-0.54
2018-03-20T04:27:07.556Z,-0.53
2018-03-20T04:29:36.656Z,-0.53
2018-03-20T04:32:05.845Z,-0.53
2018-03-20T04:34:34.874Z,-0.52
2018-03-20T04:37:04.199Z,-0.50
2018-03-20T04:39:33.260Z,-0.46
2018-03-20T04:42:02.409Z,-0.43
2018-03-20T04:44:31.427Z,-0.37
2018-03-20T04:47:00.880Z,-0.35
2018-03-20T04:49:29.959Z,-0.32
2018-03-20T04:51:58.998Z,-0.33
2018-03-20T04:54:28.026Z,-0.35
2018-03-20T04:56:57.595Z,-0.37
2018-03-20T04:59:26.653Z,-0.36
2018-03-20T05:01:55.695Z,-0.36
2018-03-20T05:04:25.014Z,-0.36
2018-03-20T05:06:54.690Z,-0.34
2018-03-20T05:09:23.766Z,-0.30
2018-03-20T05:11:53.237Z,-0.26
2018-03-20T05:14:22.498Z,-0.21
2018-03-20T05:16:51.983Z,-0.18
2018-03-20T05:19:26.619Z,-0.16
2018-03-20T05:25:02.153Z,-0.14
2018-03-20T05:27:31.793Z,-0.14
2018-03-20T05:30:00.833Z,-0.13
2018-03-20T05:32:30.768Z,-0.16
2018-03-20T05:35:00.448Z,-0.16
2018-03-20T05:37:29.560Z,-0.17
2018-03-20T05:39:58.604Z,-0.21
2018-03-20T05:42:27.655Z,-0.25
2018-03-20T05:44:57.669Z,-0.25
2018-03-20T05:47:32.549Z,-0.25
2018-03-20T05:50:07.240Z,-0.21
2018-03-20T05:52:36.380Z,-0.19
2018-03-20T05:55:06.466Z,-0.12
2018-03-20T05:57:36.213Z,-0.06
2018-03-20T06:00:06.752Z,-0.01
2018-03-20T06:02:35.790Z,0.03
2018-03-20T06:05:04.823Z,0.05
2018-03-20T06:07:34.758Z,0.08
2018-03-20T06:10:04.393Z,0.14
2018-03-20T06:12:34.029Z,0.21
2018-03-20T06:15:03.514Z,0.26
2018-03-20T06:17:32.994Z,0.31
2018-03-20T06:20:02.712Z,0.37
2018-03-20T06:22:32.133Z,0.43
2018-03-20T06:25:01.863Z,0.48
2018-03-20T06:27:31.577Z,0.53
2018-03-20T06:30:00.638Z,0.56
2018-03-20T06:32:31.497Z,0.61
2018-03-20T06:35:01.238Z,0.65
2018-03-20T06:37:30.268Z,0.66
2018-03-20T06:39:59.452Z,0.70
2018-03-20T06:42:28.575Z,0.72
2018-03-20T06:44:58.647Z,0.73
2018-03-20T06:47:28.429Z,0.74
2018-03-20T06:49:57.604Z,0.75
2018-03-20T06:52:26.690Z,0.78
2018-03-20T06:54:56.479Z,0.77
2018-03-20T06:57:26.797Z,0.81
2018-03-20T06:59:56.964Z,0.84
2018-03-20T07:02:26.397Z,0.84
2018-03-20T07:04:55.756Z,0.85
2018-03-20T07:07:24.862Z,0.85
2018-03-20T07:09:54.970Z,0.88
2018-03-20T07:12:24.260Z,0.89
2018-03-20T07:14:54.131Z,0.94
2018-03-20T07:17:23.778Z,0.98
2018-03-20T07:19:53.269Z,1.03
2018-03-20T07:22:23.150Z,1.05
2018-03-20T07:24:53.511Z,1.04
2018-03-20T07:27:23.742Z,1.05
2018-03-20T07:29:52.883Z,1.06
2018-03-20T07:32:23.058Z,1.03
2018-03-20T07:34:52.234Z,1.04
2018-03-20T07:37:21.275Z,1.03
2018-03-20T07:39:50.867Z,1.02
2018-03-20T07:42:19.991Z,1.06
2018-03-20T07:44:49.630Z,1.07
2018-03-20T07:47:19.879Z,1.09
2018-03-20T07:49:50.160Z,1.10
2018-03-20T07:52:19.201Z,1.14
2018-03-20T07:54:48.254Z,1.16
2018-03-20T07:57:18.305Z,1.18
2018-03-20T07:59:48.670Z,1.21
2018-03-20T08:02:18.783Z,1.30
2018-03-20T08:04:47.968Z,1.37
2018-03-20T08:07:17.124Z,1.42
2018-03-20T08:09:47.368Z,1.41
2018-03-20T08:12:16.420Z,1.35
2018-03-20T08:14:45.627Z,1.34
2018-03-20T08:17:14.781Z,1.32
2018-03-20T08:19:44.051Z,1.34
2018-03-20T08:22:13.490Z,1.34
2018-03-20T08:24:44.302Z,1.36
2018-03-20T08:27:13.426Z,1.31
2018-03-20T08:29:43.346Z,1.28
2018-03-20T08:32:12.774Z,1.27
2018-03-20T08:34:41.910Z,1.29
2018-03-20T08:37:11.354Z,1.33
2018-03-20T08:39:40.538Z,1.36
2018-03-20T08:42:09.749Z,1.42
2018-03-20T08:44:38.824Z,1.52
2018-03-20T08:47:08.101Z,1.56
2018-03-20T08:49:37.950Z,1.61
2018-03-20T08:52:07.016Z,1.60
2018-03-20T08:54:36.087Z,1.64
2018-03-20T08:57:05.202Z,1.65
2018-03-20T08:59:34.247Z,1.71
2018-03-20T09:02:03.293Z,1.83
2018-03-20T09:04:32.337Z,1.90
2018-03-20T09:07:02.949Z,1.96
2018-03-20T09:09:32.476Z,2.10
2018-03-20T09:12:02.110Z,2.20
2018-03-20T09:14:31.155Z,2.41
2018-03-20T09:17:00.809Z,2.61
2018-03-20T09:19:29.906Z,2.69
2018-03-20T09:21:59.846Z,2.80
2018-03-20T09:24:29.230Z,2.79
2018-03-20T09:26:58.567Z,2.71
2018-03-20T09:29:28.165Z,2.71
2018-03-20T09:31:57.203Z,2.83
2018-03-20T09:34:26.682Z,2.92
2018-03-20T09:36:55.725Z,3.04
2018-03-20T09:39:25.147Z,3.22
2018-03-20T09:41:55.851Z,3.36
2018-03-20T09:44:26.019Z,3.46
2018-03-20T09:46:55.149Z,3.58
2018-03-20T09:49:24.181Z,3.72
2018-03-20T09:51:53.657Z,3.80
2018-03-20T09:54:22.697Z,3.62
2018-03-20T09:56:51.970Z,3.41
2018-03-20T09:59:21.287Z,3.21
2018-03-20T10:01:50.849Z,3.04
2018-03-20T10:04:19.885Z,2.91
2018-03-20T10:06:48.931Z,2.87
2018-03-20T10:09:19.527Z,2.85
2018-03-20T10:11:48.659Z,2.84
2018-03-20T10:14:18.356Z,2.86
2018-03-20T10:16:47.742Z,3.00
2018-03-20T10:19:17.505Z,3.26
2018-03-20T10:21:46.812Z,3.49
2018-03-20T10:24:16.247Z,3.55
2018-03-20T10:26:45.274Z,3.57
2018-03-20T10:29:14.670Z,3.56
2018-03-20T10:31:44.102Z,3.49
2018-03-20T10:34:13.354Z,3.44
2018-03-20T10:36:42.483Z,3.45
2018-03-20T10:39:12.205Z,3.49
2018-03-20T10:41:42.298Z,3.59
2018-03-20T10:44:11.864Z,3.72
2018-03-20T10:46:40.976Z,3.78
2018-03-20T10:49:10.262Z,3.65
2018-03-20T10:51:39.676Z,3.48
2018-03-20T10:54:08.719Z,3.35
2018-03-20T10:56:38.193Z,3.35
2018-03-20T10:59:08.650Z,3.33
2018-03-20T11:01:43.823Z,3.33
2018-03-20T11:04:13.182Z,3.34
2018-03-20T11:06:42.230Z,3.43
2018-03-20T11:09:11.335Z,3.55
2018-03-20T11:11:40.504Z,3.69
2018-03-20T11:14:09.832Z,3.86
2018-03-20T11:16:38.867Z,4.16
2018-03-20T11:19:08.363Z,4.47
2018-03-20T11:21:37.769Z,4.40
2018-03-20T11:24:06.844Z,4.05
2018-03-20T11:26:38.228Z,3.77
2018-03-20T11:29:07.516Z,3.67
2018-03-20T11:31:36.722Z,3.57
2018-03-20T11:34:05.806Z,3.56
2018-03-20T11:36:35.886Z,3.64
2018-03-20T11:39:05.379Z,3.73
2018-03-20T11:41:34.611Z,3.78
2018-03-20T11:44:04.129Z,3.88
2018-03-20T11:46:33.519Z,4.00
2018-03-20T11:49:04.720Z,4.08
2018-03-20T11:51:33.875Z,4.19
2018-03-20T11:54:02.895Z,4.24
2018-03-20T11:56:31.961Z,4.33
2018-03-20T11:59:01.202Z,4.37
2018-03-20T12:01:30.273Z,4.44
2018-03-20T12:04:00.768Z,4.43
2018-03-20T12:06:29.791Z,4.20
2018-03-20T12:09:10.549Z,4.10
2018-03-20T12:11:39.640Z,4.04
2018-03-20T12:14:09.613Z,3.98
2018-03-20T12:16:38.877Z,3.92
2018-03-20T12:19:08.650Z,3.95
2018-03-20T12:21:37.818Z,4.03
2018-03-20T12:24:06.918Z,4.09
2018-03-20T12:26:36.355Z,4.12
2018-03-20T12:29:05.388Z,4.00
2018-03-20T12:31:34.515Z,3.87
2018-03-20T12:34:03.615Z,3.77
2018-03-20T12:36:32.690Z,3.61
2018-03-20T12:39:02.263Z,3.57
2018-03-20T12:41:31.600Z,3.58
2018-03-20T12:44:00.695Z,3.49
2018-03-20T12:46:29.748Z,3.51
2018-03-20T12:48:58.820Z,3.51
2018-03-20T12:51:27.878Z,3.50
2018-03-20T12:53:57.007Z,3.46
2018-03-20T12:56:26.391Z,3.48
2018-03-20T12:58:55.428Z,3.50
2018-03-20T13:01:25.223Z,3.51
2018-03-20T13:03:54.253Z,3.53
2018-03-20T13:06:23.795Z,3.60
2018-03-20T13:08:53.255Z,3.61
2018-03-20T13:11:23.360Z,3.57
2018-03-20T13:13:52.678Z,3.45
2018-03-20T13:16:21.756Z,3.37
2018-03-20T13:18:51.563Z,3.32
2018-03-20T13:21:21.280Z,3.29
2018-03-20T13:23:50.363Z,3.35
2018-03-20T13:26:20.166Z,3.38
2018-03-20T13:28:49.202Z,3.39
2018-03-20T13:31:18.734Z,3.50
2018-03-20T13:33:47.898Z,3.67
2018-03-20T13:36:16.979Z,3.88
2018-03-20T13:38:46.422Z,4.00
2018-03-20T13:41:15.845Z,4.06
2018-03-20T13:43:45.752Z,4.10
2018-03-20T13:46:14.934Z,3.99
2018-03-20T13:48:43.971Z,3.79
2018-03-20T13:51:14.006Z,3.58
2018-03-20T13:53:43.178Z,3.33
2018-03-20T13:56:12.295Z,3.00
2018-03-20T13:58:41.361Z,2.76
2018-03-20T14:01:10.365Z,2.65
2018-03-20T14:03:39.629Z,2.60
2018-03-20T14:06:08.763Z,2.61
2018-03-20T14:08:37.815Z,2.65
2018-03-20T14:11:06.838Z,2.71
2018-03-20T14:13:35.939Z,2.78
2018-03-20T14:16:05.638Z,2.84
2018-03-20T14:18:34.953Z,2.84
2018-03-20T14:21:04.042Z,2.81
2018-03-20T14:23:33.934Z,2.79
2018-03-20T14:26:03.372Z,2.80
2018-03-20T14:28:32.355Z,2.81
2018-03-20T14:31:01.403Z,2.82
2018-03-20T14:33:30.446Z,2.83
2018-03-20T14:35:59.486Z,2.78
2018-03-20T14:38:28.526Z,2.73
2018-03-20T14:40:57.641Z,2.73
2018-03-20T14:43:26.679Z,2.80
2018-03-20T14:45:55.722Z,2.79
2018-03-20T14:48:24.809Z,2.78
2018-03-20T14:50:53.991Z,2.75
2018-03-20T14:53:23.001Z,2.73
2018-03-20T14:55:52.118Z,2.70
2018-03-20T14:58:21.157Z,2.73
2018-03-20T15:00:50.808Z,2.73
2018-03-20T15:03:19.948Z,2.73
2018-03-20T15:05:48.981Z,2.80
2018-03-20T15:08:18.242Z,2.82
2018-03-20T15:10:47.828Z,2.80
2018-03-20T15:13:16.909Z,2.80
2018-03-20T15:15:45.949Z,2.74
2018-03-20T15:18:14.993Z,2.65
2018-03-20T15:20:44.019Z,2.58
2018-03-20T15:23:13.059Z,2.51
2018-03-20T15:25:42.104Z,2.48
2018-03-20T15:28:11.210Z,2.45
2018-03-20T15:30:40.755Z,2.48
2018-03-20T15:33:10.538Z,2.41
2018-03-20T15:35:39.568Z,2.39
2018-03-20T15:38:09.301Z,2.42
2018-03-20T15:40:38.327Z,2.44
2018-03-20T15:43:08.229Z,2.43
2018-03-20T15:45:37.491Z,2.39
2018-03-20T15:48:06.926Z,2.37
2018-03-20T15:50:36.215Z,2.35
2018-03-20T15:53:05.287Z,2.30
2018-03-20T15:55:35.191Z,2.28
2018-03-20T15:58:04.347Z,2.26
2018-03-20T16:00:34.505Z,2.26
2018-03-20T16:03:03.985Z,2.22
2018-03-20T16:05:33.370Z,2.20
2018-03-20T16:08:02.500Z,2.19
2018-03-20T16:10:33.340Z,2.21
2018-03-20T16:13:02.849Z,2.19
2018-03-20T16:15:32.248Z,2.17
2018-03-20T16:18:01.819Z,2.16
2018-03-20T16:20:31.083Z,2.19
2018-03-20T16:23:00.192Z,2.19
2018-03-20T16:25:29.429Z,2.19
2018-03-20T16:27:58.705Z,2.15
2018-03-20T16:30:28.837Z,2.14
2018-03-20T16:32:58.374Z,2.10
2018-03-20T16:35:27.416Z,2.06
2018-03-20T16:37:56.647Z,2.02
2018-03-20T16:40:25.857Z,2.02
2018-03-20T16:42:55.659Z,2.01
2018-03-20T16:45:24.782Z,1.97
2018-03-20T16:47:53.889Z,1.94
2018-03-20T16:50:23.106Z,1.91
2018-03-20T16:52:52.158Z,1.90
2018-03-20T16:55:21.675Z,1.88
2018-03-20T16:57:50.846Z,1.89
2018-03-20T17:02:53.812Z,1.90
2018-03-20T17:05:23.005Z,1.90
2018-03-20T17:07:52.900Z,1.90
2018-03-20T17:10:22.290Z,1.88
2018-03-20T17:12:51.407Z,1.84
2018-03-20T17:15:21.142Z,1.83
2018-03-20T17:17:50.470Z,1.82
2018-03-20T17:20:19.633Z,1.81
2018-03-20T17:22:49.991Z,1.79
2018-03-20T17:25:19.435Z,1.77
2018-03-20T17:27:48.501Z,1.77
2018-03-20T17:30:17.572Z,1.77
2018-03-20T17:32:47.006Z,1.77
2018-03-20T17:35:18.195Z,1.77
2018-03-20T17:37:47.426Z,1.76
2018-03-20T17:40:16.461Z,1.78
2018-03-20T17:42:46.089Z,1.76
2018-03-20T17:45:15.121Z,1.74
2018-03-20T17:47:44.165Z,1.76
2018-03-20T17:50:13.317Z,1.78
2018-03-20T17:52:42.389Z,1.77
2018-03-20T17:55:11.694Z,1.76
2018-03-20T17:57:41.284Z,1.74
2018-03-20T18:00:10.703Z,1.74
2018-03-20T18:02:40.036Z,1.74
2018-03-20T18:05:09.455Z,1.71
2018-03-20T18:07:38.777Z,1.70
2018-03-20T18:10:07.928Z,1.70
2018-03-20T18:12:37.013Z,1.68
2018-03-20T18:15:06.140Z,1.67
2018-03-20T18:17:35.548Z,1.68
2018-03-20T18:20:04.822Z,1.67
2018-03-20T18:22:34.845Z,1.64
2018-03-20T18:25:03.987Z,1.66
2018-03-20T18:27:33.366Z,1.65
2018-03-20T18:30:02.482Z,1.64
2018-03-20T18:32:32.174Z,1.64
2018-03-20T18:35:01.356Z,1.63
2018-03-20T18:37:30.729Z,1.63
2018-03-20T18:40:00.138Z,1.61
2018-03-20T18:42:29.172Z,1.59
2018-03-20T18:44:58.211Z,1.57
2018-03-20T18:47:27.291Z,1.52
2018-03-20T18:49:56.333Z,1.49
2018-03-20T18:52:25.376Z,1.48
2018-03-20T18:54:54.417Z,1.47
2018-03-20T18:57:23.478Z,1.43
2018-03-20T18:59:52.819Z,1.35
2018-03-20T19:02:21.882Z,1.29
2018-03-20T19:04:50.988Z,1.26
2018-03-20T19:07:20.027Z,1.24
2018-03-20T19:09:49.095Z,1.20
2018-03-20T19:12:18.476Z,1.18
2018-03-20T19:14:47.507Z,1.19
2018-03-20T19:17:16.552Z,1.18
2018-03-20T19:19:45.593Z,1.20
2018-03-20T19:22:14.590Z,1.20
2018-03-20T19:24:43.895Z,1.19
2018-03-20T19:27:12.949Z,1.16
2018-03-20T19:29:42.364Z,1.11
2018-03-20T19:32:12.069Z,1.10
2018-03-20T19:34:41.131Z,1.05
2018-03-20T19:37:18.039Z,1.06
2018-03-20T19:39:47.124Z,1.08
2018-03-20T19:42:16.200Z,1.11
2018-03-20T19:44:45.630Z,1.14
2018-03-20T19:47:14.718Z,1.15
2018-03-20T19:49:43.783Z,1.14
2018-03-20T19:52:12.841Z,1.12
2018-03-20T19:54:41.988Z,1.13
2018-03-20T19:57:11.928Z,1.13
2018-03-20T19:59:41.010Z,1.14
2018-03-20T20:02:10.057Z,1.16
2018-03-20T20:04:39.116Z,1.14
2018-03-20T20:07:08.163Z,1.12
2018-03-20T20:09:37.198Z,1.08
2018-03-20T20:12:06.398Z,1.06
2018-03-20T20:14:35.476Z,1.06
2018-03-20T20:17:04.704Z,1.05
2018-03-20T20:19:33.992Z,1.05
2018-03-20T20:22:03.073Z,1.05
2018-03-20T20:24:32.848Z,1.04
2018-03-20T20:27:04.686Z,1.06
2018-03-20T20:29:34.749Z,1.09
2018-03-20T20:32:04.038Z,1.40
2018-03-20T20:34:36.006Z,1.41
2018-03-20T20:37:05.233Z,1.33
2018-03-20T20:39:34.295Z,1.22
2018-03-20T20:42:03.429Z,1.17
2018-03-20T20:44:32.530Z,1.15
2018-03-20T20:47:01.613Z,1.13
2018-03-20T20:49:30.878Z,1.11
2018-03-20T20:51:59.923Z,1.07
2018-03-20T20:54:29.132Z,1.03
2018-03-20T20:56:58.526Z,1.00
2018-03-20T20:59:27.613Z,0.98
2018-03-20T21:01:57.357Z,0.97
2018-03-20T21:04:26.398Z,0.98
2018-03-20T21:06:55.833Z,1.01
2018-03-20T21:09:24.869Z,1.00
2018-03-20T21:11:53.949Z,1.01
2018-03-20T21:14:46.426Z,1.01
2018-03-20T21:17:15.501Z,1.03
2018-03-20T21:19:44.567Z,1.03
2018-03-20T21:22:14.477Z,1.05
2018-03-20T21:24:44.753Z,1.08
2018-03-20T21:27:14.008Z,1.10
2018-03-20T21:29:44.200Z,1.08
2018-03-20T21:32:14.977Z,1.09
2018-03-20T21:34:45.384Z,1.09
2018-03-20T21:37:16.705Z,1.10
2018-03-20T21:39:47.601Z,1.11
2018-03-20T21:42:20.528Z,1.12
2018-03-20T21:44:49.693Z,1.11
2018-03-20T21:47:18.795Z,1.11
2018-03-20T21:49:48.206Z,1.12
2018-03-20T21:52:17.432Z,1.09
2018-03-20T21:54:46.504Z,1.07
2018-03-20T21:57:16.378Z,1.06
2018-03-20T21:59:45.849Z,1.07
2018-03-20T22:02:15.704Z,1.07
2018-03-20T22:04:49.508Z,1.10
2018-03-20T22:07:21.567Z,1.09
2018-03-20T22:09:50.745Z,1.09
2018-03-20T22:12:22.636Z,1.09
2018-03-20T22:14:52.248Z,1.07
2018-03-20T22:17:22.540Z,1.04
2018-03-20T22:19:52.478Z,1.00
2018-03-20T22:22:23.448Z,0.99
2018-03-20T22:24:53.916Z,0.95
2018-03-20T22:27:24.204Z,0.92
2018-03-20T22:29:54.250Z,0.86
2018-03-20T22:32:26.212Z,0.82
2018-03-20T22:34:57.175Z,0.79
2018-03-20T22:37:27.693Z,0.77
2018-03-20T22:39:59.941Z,0.78
2018-03-20T22:42:30.292Z,0.75
2018-03-20T22:45:01.052Z,0.72
2018-03-20T22:47:30.341Z,0.70
2018-03-20T22:50:03.553Z,0.69
2018-03-20T22:52:33.926Z,0.70
2018-03-20T22:55:03.990Z,0.70
2018-03-20T22:57:35.072Z,0.71
2018-03-20T23:00:04.116Z,0.71
2018-03-20T23:02:33.207Z,0.69
2018-03-20T23:05:02.569Z,0.66
2018-03-20T23:07:31.709Z,0.61
2018-03-20T23:10:00.826Z,0.58
2018-03-20T23:12:29.937Z,0.55
2018-03-20T23:14:59.027Z,0.52
2018-03-20T23:17:28.141Z,0.49
2018-03-20T23:19:57.829Z,0.45
2018-03-20T23:22:27.290Z,0.41
2018-03-20T23:24:56.511Z,0.38
2018-03-20T23:27:26.238Z,0.34
2018-03-20T23:29:56.223Z,0.32
2018-03-20T23:32:25.678Z,0.29
2018-03-20T23:34:54.786Z,0.26
2018-03-20T23:37:23.984Z,0.25
2018-03-20T23:39:53.134Z,0.23
2018-03-20T23:42:22.291Z,0.21
2018-03-20T23:44:51.393Z,0.20
2018-03-20T23:47:20.905Z,0.17
2018-03-20T23:49:50.015Z,0.15
2018-03-20T23:52:19.468Z,0.13
2018-03-20T23:54:48.588Z,0.11
2018-03-20T23:57:17.689Z,0.11
2018-03-20T23:59:46.912Z,0.11
